Time;durP1;ratioP1;P1;durP2;ratioP2;P2;SDS_P1;SDS_P2;PMS_P1;PMS_P2;Temp;Humidity;BMP_temperature;BMP_pressure;BME280_temperature;BME280_humidity;BME280_pressure;Samples;Min_cycle;Max_cycle;Signal;HPM_P1;HPM_P2
2022/03/31 00:00:28;;;;;;;17.80;13.85;;;11.10;76.60;;;;;;4974447;28;20072;-66
2022/03/31 00:02:57;;;;;;;19.45;14.15;;;11.10;76.50;;;;;;4970931;28;20041;-66
2022/03/31 00:05:23;;;;;;;19.35;14.63;;;11.10;76.30;;;;;;4971145;28;20178;-67
2022/03/31 00:07:57;;;;;;;19.83;15.07;;;11.10;76.30;;;;;;4974372;28;20054;-66
2022/03/31 00:10:28;;;;;;;19.10;14.52;;;11.10;76.60;;;;;;4977316;28;20038;-66
2022/03/31 00:12:55;;;;;;;18.70;14.63;;;11.10;76.50;;;;;;4972476;28;20038;-66
2022/03/31 00:15:21;;;;;;;16.77;13.52;;;11.10;76.30;;;;;;4969862;28;20187;-66
2022/03/31 00:17:47;;;;;;;18.10;14.30;;;11.10;76.30;;;;;;4976682;28;20038;-67
2022/03/31 00:20:13;;;;;;;19.45;15.32;;;11.10;76.30;;;;;;4974809;28;20448;-66
2022/03/31 00:22:40;;;;;;;19.00;14.38;;;11.10;76.30;;;;;;4971533;28;20034;-66
2022/03/31 00:25:07;;;;;;;18.10;13.93;;;11.10;76.40;;;;;;4970717;28;20318;-66
2022/03/31 00:27:33;;;;;;;18.00;15.02;;;11.10;76.30;;;;;;4973893;28;20403;-67
2022/03/31 00:29:59;;;;;;;17.63;14.57;;;11.10;76.30;;;;;;4976355;28;20068;-66
2022/03/31 00:32:25;;;;;;;18.30;14.70;;;11.10;76.30;;;;;;4971738;28;20061;-66
2022/03/31 00:34:50;;;;;;;19.02;14.82;;;11.00;77.10;;;;;;4974899;28;20383;-66
2022/03/31 00:37:16;;;;;;;18.02;14.20;;;11.10;76.40;;;;;;4975593;28;20046;-66
2022/03/31 00:39:42;;;;;;;19.02;15.55;;;11.10;76.40;;;;;;4975216;28;20058;-66
2022/03/31 00:42:10;;;;;;;18.63;15.07;;;11.10;76.30;;;;;;4976849;28;20030;-66
2022/03/31 00:44:36;;;;;;;20.92;15.82;;;11.10;76.30;;;;;;4971203;28;20034;-67
2022/03/31 00:47:02;;;;;;;19.60;15.35;;;11.10;76.30;;;;;;4975628;28;20035;-67
2022/03/31 00:49:29;;;;;;;20.30;15.23;;;11.10;76.30;;;;;;4976291;28;20506;-66
2022/03/31 00:51:55;;;;;;;20.52;16.48;;;11.10;77.20;;;;;;4976685;28;20034;-67
2022/03/31 00:54:23;;;;;;;19.05;15.27;;;11.10;77.20;;;;;;4974572;28;20449;-66
2022/03/31 00:56:50;;;;;;;19.13;15.23;;;11.00;76.40;;;;;;4970748;28;20038;-66
2022/03/31 00:59:17;;;;;;;20.67;16.05;;;11.00;76.40;;;;;;4975414;28;20062;-66
2022/03/31 01:01:45;;;;;;;20.85;16.40;;;11.00;76.40;;;;;;4975910;28;20035;-66
2022/03/31 01:04:11;;;;;;;20.17;15.75;;;11.00;76.40;;;;;;4972767;28;20312;-66
2022/03/31 01:06:37;;;;;;;22.00;16.58;;;11.00;76.40;;;;;;4973581;28;20043;-66
2022/03/31 01:09:04;;;;;;;20.10;15.60;;;11.00;76.40;;;;;;4970995;28;20034;-66
2022/03/31 01:11:30;;;;;;;20.00;15.65;;;11.00;76.50;;;;;;4970852;28;20045;-66
2022/03/31 01:13:56;;;;;;;21.08;16.38;;;11.00;76.50;;;;;;4972620;28;20030;-66
2022/03/31 01:16:22;;;;;;;20.27;15.95;;;11.00;76.50;;;;;;4978102;28;20054;-67
2022/03/31 01:18:50;;;;;;;22.35;17.35;;;11.00;76.60;;;;;;4973267;28;20045;-66
2022/03/31 01:21:17;;;;;;;26.05;17.98;;;11.00;76.60;;;;;;4977356;28;20469;-66
2022/03/31 01:23:44;;;;;;;25.25;18.40;;;11.00;76.60;;;;;;4978404;28;20030;-66
2022/03/31 01:26:10;;;;;;;26.48;19.25;;;10.90;76.70;;;;;;4974796;28;20389;-67
2022/03/31 01:28:45;;;;;;;24.13;18.00;;;10.90;76.80;;;;;;4979237;28;20039;-66
2022/03/31 01:31:10;;;;;;;27.70;19.75;;;10.90;77.30;;;;;;4978833;28;20114;-66
2022/03/31 01:33:37;;;;;;;25.67;19.15;;;10.90;77.00;;;;;;4974723;28;20088;-67
2022/03/31 01:36:04;;;;;;;26.80;19.05;;;10.80;77.00;;;;;;4980172;28;20034;-66
2022/03/31 01:38:30;;;;;;;25.83;18.60;;;10.80;77.10;;;;;;4977994;28;20046;-66
2022/03/31 01:40:56;;;;;;;26.73;19.48;;;10.80;77.10;;;;;;4975544;28;20081;-66
2022/03/31 01:43:22;;;;;;;26.27;18.75;;;10.80;77.10;;;;;;4978708;28;20044;-67
2022/03/31 01:45:52;;;;;;;24.42;17.02;;;10.80;77.20;;;;;;4976514;28;20030;-66
2022/03/31 01:48:19;;;;;;;22.88;17.13;;;10.80;77.10;;;;;;4976102;28;20042;-67
2022/03/31 01:50:45;;;;;;;22.73;16.35;;;10.70;77.00;;;;;;4980851;28;20042;-66
2022/03/31 01:53:10;;;;;;;24.63;18.40;;;10.80;77.20;;;;;;4977995;28;20403;-66
2022/03/31 01:55:36;;;;;;;25.02;18.25;;;10.70;77.20;;;;;;4976684;28;20074;-66
2022/03/31 01:58:03;;;;;;;27.13;19.33;;;10.70;77.20;;;;;;4975628;28;20070;-66
2022/03/31 02:00:29;;;;;;;27.08;19.50;;;10.70;77.20;;;;;;4974152;28;20038;-67
2022/03/31 02:02:55;;;;;;;25.17;18.63;;;10.70;77.20;;;;;;4974539;28;20030;-66
2022/03/31 02:05:21;;;;;;;26.05;19.20;;;10.70;77.20;;;;;;4976939;28;20046;-65
2022/03/31 02:07:47;;;;;;;28.52;19.10;;;10.70;77.30;;;;;;4973468;28;20049;-66
2022/03/31 02:10:13;;;;;;;33.30;20.67;;;10.70;77.30;;;;;;4978646;28;20034;-66
2022/03/31 02:12:40;;;;;;;30.58;20.33;;;10.70;77.40;;;;;;4975660;28;20042;-66
2022/03/31 02:15:07;;;;;;;31.40;21.70;;;10.70;77.50;;;;;;4973187;28;20235;-66
2022/03/31 02:17:33;;;;;;;29.23;20.10;;;10.70;77.50;;;;;;4977160;28;20417;-66
2022/03/31 02:19:58;;;;;;;30.35;20.38;;;10.60;77.40;;;;;;4979971;28;20027;-65
2022/03/31 02:22:24;;;;;;;31.95;21.73;;;10.60;77.30;;;;;;4979107;28;20322;-66
2022/03/31 02:24:49;;;;;;;29.58;20.77;;;10.70;77.50;;;;;;4978546;28;20042;-66
2022/03/31 02:27:15;;;;;;;29.77;20.05;;;10.70;77.30;;;;;;4971954;28;20056;-66
2022/03/31 02:29:41;;;;;;;33.42;20.92;;;10.70;77.30;;;;;;4974921;28;20046;-66
2022/03/31 02:32:07;;;;;;;31.40;20.42;;;10.70;77.30;;;;;;4975035;28;20038;-66
2022/03/31 02:34:33;;;;;;;35.85;21.10;;;10.70;77.30;;;;;;4976015;28;20042;-65
2022/03/31 02:36:59;;;;;;;36.83;21.25;;;10.70;77.30;;;;;;4980084;28;20038;-66
2022/03/31 02:39:25;;;;;;;30.83;19.75;;;10.70;77.30;;;;;;4977256;28;20050;-66
2022/03/31 02:41:51;;;;;;;38.97;20.50;;;10.70;77.30;;;;;;4978119;28;20122;-66
2022/03/31 02:44:16;;;;;;;34.08;19.38;;;10.60;77.30;;;;;;4975085;28;20030;-66
2022/03/31 02:46:42;;;;;;;33.80;20.10;;;10.60;77.30;;;;;;4978033;28;20050;-67
2022/03/31 02:49:08;;;;;;;32.03;20.13;;;10.60;77.30;;;;;;4977841;28;20037;-66
2022/03/31 02:51:34;;;;;;;35.78;20.85;;;10.60;77.40;;;;;;4974707;28;20038;-66
2022/03/31 02:56:45;;;;;;;39.03;19.75;;;10.60;77.60;;;;;;4974353;28;20061;-66
2022/03/31 02:59:11;;;;;;;36.58;19.65;;;10.50;77.40;;;;;;4976071;28;20125;-66
2022/03/31 03:01:37;;;;;;;34.78;19.52;;;10.50;78.40;;;;;;4975038;28;20119;-66
2022/03/31 03:04:03;;;;;;;40.75;20.73;;;10.50;77.60;;;;;;4978783;28;20109;-66
2022/03/31 03:06:28;;;;;;;35.58;20.42;;;10.40;77.70;;;;;;4961198;28;20042;-66
2022/03/31 03:08:55;;;;;;;32.05;19.77;;;10.40;77.70;;;;;;4959805;28;20038;-66
2022/03/31 03:11:21;;;;;;;33.33;19.92;;;10.40;77.90;;;;;;4973705;28;20167;-66
2022/03/31 03:13:47;;;;;;;33.00;19.48;;;10.40;77.90;;;;;;4966703;28;20114;-66
2022/03/31 03:16:13;;;;;;;28.85;19.10;;;10.40;78.00;;;;;;4952107;28;20043;-65
2022/03/31 03:18:40;;;;;;;31.52;19.75;;;10.40;78.00;;;;;;4970224;28;20034;-66
2022/03/31 03:21:07;;;;;;;32.50;20.67;;;10.40;77.90;;;;;;4978727;28;20529;-66
2022/03/31 03:23:36;;;;;;;32.67;20.50;;;10.40;77.90;;;;;;4958446;28;20031;-66
2022/03/31 03:26:02;;;;;;;29.95;17.95;;;10.40;77.90;;;;;;4966765;28;20031;-66
2022/03/31 03:28:29;;;;;;;29.23;19.00;;;10.40;77.70;;;;;;4989589;28;20038;-66
2022/03/31 03:30:55;;;;;;;28.63;18.40;;;10.40;77.70;;;;;;4954111;28;20612;-65
2022/03/31 03:33:21;;;;;;;31.88;19.17;;;10.40;77.60;;;;;;4964268;28;20022;-66
2022/03/31 03:35:46;;;;;;;31.98;18.85;;;10.40;77.70;;;;;;4973311;28;20117;-66
2022/03/31 03:38:14;;;;;;;32.38;19.50;;;10.40;77.60;;;;;;4974052;28;20146;-67
2022/03/31 03:40:40;;;;;;;35.85;20.80;;;10.40;77.50;;;;;;4974104;28;20035;-66
2022/03/31 03:43:06;;;;;;;37.72;21.60;;;10.30;77.50;;;;;;4975843;28;20034;-66
2022/03/31 03:45:32;;;;;;;42.45;21.88;;;10.30;77.50;;;;;;4971257;28;20338;-66
2022/03/31 03:47:58;;;;;;;41.08;21.77;;;10.30;77.30;;;;;;4972211;28;20412;-66
2022/03/31 03:50:25;;;;;;;42.53;22.77;;;10.30;77.40;;;;;;4959325;28;20042;-67
2022/03/31 03:52:51;;;;;;;40.70;21.70;;;10.30;77.40;;;;;;4960295;28;20054;-65
2022/03/31 03:55:17;;;;;;;39.50;22.08;;;10.20;77.40;;;;;;4975285;28;20089;-66
2022/03/31 03:57:43;;;;;;;46.50;23.20;;;10.20;77.40;;;;;;4971641;28;20064;-66
2022/03/31 04:00:10;;;;;;;41.90;22.80;;;10.10;77.40;;;;;;4976767;28;20133;-65
2022/03/31 04:02:36;;;;;;;43.35;22.92;;;10.10;77.60;;;;;;4971819;28;20059;-66
2022/03/31 04:05:03;;;;;;;41.63;22.40;;;10.00;77.60;;;;;;4969762;28;20073;-66
2022/03/31 04:07:28;;;;;;;40.78;22.13;;;10.00;77.70;;;;;;4951991;28;20149;-66
2022/03/31 04:09:54;;;;;;;44.35;23.58;;;10.00;77.90;;;;;;4953704;28;20363;-66
2022/03/31 04:12:19;;;;;;;42.40;22.35;;;10.00;77.90;;;;;;4951333;28;20045;-65
2022/03/31 04:14:45;;;;;;;55.63;32.15;;;10.00;77.90;;;;;;4973576;28;20514;-65
2022/03/31 04:17:11;;;;;;;38.35;22.23;;;9.90;77.90;;;;;;4964715;28;20094;-66
2022/03/31 04:19:37;;;;;;;40.05;21.13;;;10.00;77.90;;;;;;4954545;28;20066;-66
2022/03/31 04:22:02;;;;;;;40.38;20.58;;;9.90;77.90;;;;;;4968695;28;20060;-66
2022/03/31 04:24:28;;;;;;;43.15;22.67;;;9.90;77.90;;;;;;4973326;28;20117;-65
2022/03/31 04:26:54;;;;;;;40.33;20.77;;;9.90;77.90;;;;;;4950902;28;20042;-65
2022/03/31 04:29:19;;;;;;;41.67;21.35;;;9.90;77.90;;;;;;4959279;28;20038;-65
2022/03/31 04:31:45;;;;;;;40.97;22.02;;;9.90;78.00;;;;;;4960195;28;20069;-64
2022/03/31 04:34:15;;;;;;;37.58;20.50;;;9.90;78.20;;;;;;4954403;28;20531;-66
2022/03/31 04:36:41;;;;;;;46.88;24.33;;;9.90;78.10;;;;;;4967124;28;20043;-66
2022/03/31 04:39:08;;;;;;;48.50;23.70;;;9.90;78.20;;;;;;4973595;28;20116;-66
2022/03/31 04:41:33;;;;;;;45.25;23.30;;;9.90;78.30;;;;;;4976828;28;20726;-66
2022/03/31 04:43:59;;;;;;;40.22;22.20;;;9.90;78.30;;;;;;4977635;28;20035;-64
2022/03/31 04:46:25;;;;;;;45.70;22.85;;;9.80;78.40;;;;;;4972048;28;20062;-67
2022/03/31 04:48:51;;;;;;;42.53;22.08;;;9.80;78.40;;;;;;4972907;28;20063;-67
2022/03/31 04:51:16;;;;;;;39.92;21.77;;;9.80;78.60;;;;;;4968966;28;20537;-66
2022/03/31 04:53:42;;;;;;;39.10;22.25;;;9.80;78.50;;;;;;4970760;28;20031;-66
2022/03/31 04:56:07;;;;;;;39.00;20.95;;;9.90;78.40;;;;;;4962976;28;20534;-66
2022/03/31 04:58:36;;;;;;;41.80;21.88;;;9.90;78.40;;;;;;4979522;28;20034;-64
2022/03/31 05:01:02;;;;;;;44.03;22.42;;;9.90;78.40;;;;;;4980081;28;20030;-66
2022/03/31 05:03:28;;;;;;;42.80;22.20;;;9.90;78.40;;;;;;4981588;28;20037;-66
2022/03/31 05:05:53;;;;;;;41.70;22.15;;;9.90;78.40;;;;;;4968788;28;20027;-64
2022/03/31 05:08:19;;;;;;;41.97;21.52;;;9.90;79.30;;;;;;4962208;28;20571;-66
2022/03/31 05:10:45;;;;;;;42.72;21.58;;;9.90;78.40;;;;;;4980282;28;20039;-66
2022/03/31 05:13:11;;;;;;;47.40;22.40;;;9.90;78.50;;;;;;4978373;28;20407;-66
2022/03/31 05:15:37;;;;;;;39.58;22.45;;;9.90;78.60;;;;;;4972041;28;20034;-66
2022/03/31 05:18:03;;;;;;;42.58;22.98;;;9.90;78.50;;;;;;4981700;28;20421;-66
2022/03/31 05:20:29;;;;;;;42.03;22.70;;;10.00;78.60;;;;;;4981408;28;20037;-64
2022/03/31 05:22:54;;;;;;;42.30;22.33;;;10.00;78.50;;;;;;4982710;28;20343;-66
2022/03/31 05:25:20;;;;;;;45.28;23.40;;;9.90;78.40;;;;;;4982207;28;20701;-66
2022/03/31 05:27:47;;;;;;;42.42;22.17;;;10.00;78.40;;;;;;4980858;28;20370;-67
2022/03/31 05:30:16;;;;;;;49.25;22.70;;;10.00;78.30;;;;;;4978190;28;20062;-66
2022/03/31 05:32:42;;;;;;;44.78;23.05;;;10.00;78.40;;;;;;4980491;28;20094;-66
2022/03/31 05:35:11;;;;;;;47.17;23.27;;;10.00;78.40;;;;;;4981777;28;20516;-66
2022/03/31 05:37:37;;;;;;;45.40;22.40;;;10.00;78.40;;;;;;4980067;28;20096;-66
2022/03/31 05:40:05;;;;;;;46.50;22.85;;;10.00;78.40;;;;;;4978012;28;20110;-65
2022/03/31 05:42:32;;;;;;;42.88;21.35;;;10.00;78.40;;;;;;4978705;28;20057;-66
2022/03/31 05:45:00;;;;;;;44.47;21.80;;;10.00;78.40;;;;;;4977531;28;20078;-66
2022/03/31 05:47:26;;;;;;;44.25;22.88;;;10.00;78.40;;;;;;4969575;28;20038;-67
2022/03/31 05:49:52;;;;;;;44.55;23.13;;;9.90;78.30;;;;;;4977904;28;20499;-66
2022/03/31 05:52:18;;;;;;;47.50;22.40;;;10.00;78.40;;;;;;4978680;28;20117;-66
2022/03/31 05:54:44;;;;;;;46.97;22.42;;;10.00;78.40;;;;;;4977675;28;20098;-66
2022/03/31 05:57:10;;;;;;;45.17;22.40;;;9.90;78.30;;;;;;4978819;28;20043;-66
2022/03/31 05:59:35;;;;;;;44.05;21.77;;;9.90;78.40;;;;;;4980243;28;20073;-66
2022/03/31 06:02:02;;;;;;;46.67;23.35;;;9.90;78.40;;;;;;4977443;28;20518;-67
2022/03/31 06:04:28;;;;;;;45.53;22.73;;;9.90;78.50;;;;;;4976560;28;20565;-66
2022/03/31 06:06:53;;;;;;;45.65;22.05;;;9.90;78.60;;;;;;4977695;28;20076;-65
2022/03/31 06:09:19;;;;;;;46.33;22.35;;;9.90;78.70;;;;;;4977159;28;20166;-66
2022/03/31 06:11:45;;;;;;;47.65;23.13;;;9.80;78.70;;;;;;4981126;28;20042;-67
2022/03/31 06:14:11;;;;;;;43.25;23.00;;;9.80;78.90;;;;;;4978752;28;20043;-67
2022/03/31 06:16:38;;;;;;;59.95;22.80;;;9.80;79.00;;;;;;4980880;28;20042;-66
2022/03/31 06:19:04;;;;;;;66.53;23.63;;;9.80;78.90;;;;;;4962835;28;20154;-65
2022/03/31 06:21:30;;;;;;;50.10;21.80;;;9.80;78.90;;;;;;4968602;28;20038;-66
2022/03/31 06:23:56;;;;;;;46.28;23.17;;;9.80;79.00;;;;;;4980327;28;20564;-67
2022/03/31 06:26:22;;;;;;;42.80;21.48;;;9.80;78.90;;;;;;4964249;28;20035;-66
2022/03/31 06:28:48;;;;;;;45.30;23.13;;;9.80;79.10;;;;;;4962838;28;20093;-66
2022/03/31 06:31:14;;;;;;;43.53;21.58;;;9.80;79.20;;;;;;4979115;28;20054;-66
2022/03/31 06:33:39;;;;;;;45.72;23.55;;;9.80;79.20;;;;;;4970305;28;20082;-66
2022/03/31 06:36:06;;;;;;;46.13;22.80;;;9.80;79.30;;;;;;4959767;28;20522;-65
2022/03/31 06:38:31;;;;;;;45.60;22.52;;;9.80;79.30;;;;;;4976643;28;20064;-65
2022/03/31 06:41:06;;;;;;;41.00;22.58;;;9.80;79.40;;;;;;4975725;28;20030;-65
2022/03/31 06:43:36;;;;;;;46.88;22.92;;;9.80;79.40;;;;;;4957739;28;20090;-66
2022/03/31 06:46:03;;;;;;;51.95;22.50;;;9.80;80.50;;;;;;4972153;28;20027;-66
2022/03/31 06:48:30;;;;;;;50.17;24.05;;;9.80;79.40;;;;;;4964667;28;20054;-66
2022/03/31 06:50:57;;;;;;;44.63;22.30;;;9.90;79.50;;;;;;4966291;28;20030;-66
2022/03/31 06:53:22;;;;;;;42.08;21.80;;;9.90;79.60;;;;;;4980747;28;20034;-66
2022/03/31 06:55:48;;;;;;;46.53;23.27;;;9.90;79.60;;;;;;4966432;28;20035;-66
2022/03/31 06:58:15;;;;;;;48.33;23.23;;;9.90;79.90;;;;;;4975260;28;20049;-66
2022/03/31 07:00:41;;;;;;;44.25;22.20;;;9.90;79.90;;;;;;4977035;28;20032;-66
2022/03/31 07:03:06;;;;;;;46.40;23.30;;;10.00;79.90;;;;;;4966299;28;20496;-66
2022/03/31 07:05:35;;;;;;;48.80;23.58;;;10.00;80.00;;;;;;4970442;28;20034;-66
2022/03/31 07:08:01;;;;;;;47.20;23.92;;;10.00;80.10;;;;;;4960519;28;20036;-66
2022/03/31 07:10:27;;;;;;;48.97;23.15;;;10.00;79.80;;;;;;4957240;28;20031;-65
2022/03/31 07:12:52;;;;;;;57.53;22.98;;;10.00;79.80;;;;;;4973890;28;20057;-66
2022/03/31 07:15:19;;;;;;;43.75;22.73;;;10.00;79.80;;;;;;4965253;28;20030;-66
2022/03/31 07:17:44;;;;;;;50.42;23.50;;;10.00;79.80;;;;;;4967891;28;20035;-66
2022/03/31 07:20:11;;;;;;;46.13;23.10;;;10.00;80.00;;;;;;4973598;28;20035;-66
2022/03/31 07:22:44;;;;;;;46.38;22.80;;;10.00;80.00;;;;;;4978062;28;20049;-66
2022/03/31 07:25:10;;;;;;;47.38;22.52;;;10.10;80.30;;;;;;4977509;28;20120;-66
2022/03/31 07:27:35;;;;;;;49.67;22.30;;;10.10;80.10;;;;;;4979431;28;20046;-65
2022/03/31 07:30:01;;;;;;;53.83;23.00;;;10.10;80.10;;;;;;4977316;28;20042;-66
2022/03/31 07:32:27;;;;;;;43.90;21.75;;;10.10;80.10;;;;;;4977816;28;20041;-65
2022/03/31 07:34:52;;;;;;;62.50;23.08;;;10.10;80.10;;;;;;4978965;28;20046;-65
2022/03/31 07:37:18;;;;;;;75.80;23.60;;;10.10;80.20;;;;;;4978155;28;20030;-65
2022/03/31 07:39:45;;;;;;;45.53;22.13;;;10.20;80.20;;;;;;4977242;28;20029;-65
2022/03/31 07:42:12;;;;;;;51.38;23.27;;;10.10;80.10;;;;;;4977714;28;20128;-65
2022/03/31 07:44:39;;;;;;;44.08;22.20;;;10.10;80.30;;;;;;4977048;28;20042;-65
2022/03/31 07:47:06;;;;;;;48.25;23.35;;;10.10;80.30;;;;;;4976382;28;20042;-66
2022/03/31 07:49:31;;;;;;;47.13;22.77;;;10.10;80.40;;;;;;4979257;28;20517;-66
2022/03/31 07:51:57;;;;;;;48.65;22.02;;;10.10;80.30;;;;;;4977999;28;20165;-65
2022/03/31 07:54:23;;;;;;;52.28;22.95;;;10.10;80.50;;;;;;4975653;28;20526;-66
2022/03/31 07:56:50;;;;;;;48.58;22.42;;;10.20;80.50;;;;;;4957799;28;20039;-65
2022/03/31 07:59:21;;;;;;;50.92;23.77;;;10.10;80.50;;;;;;4964824;28;20458;-65
2022/03/31 08:01:47;;;;;;;46.35;22.48;;;10.10;80.60;;;;;;4966163;28;20034;-65
2022/03/31 08:04:13;;;;;;;49.63;22.63;;;10.10;80.60;;;;;;4963646;28;20046;-65
2022/03/31 08:06:39;;;;;;;54.97;22.95;;;10.20;80.80;;;;;;4977817;28;20065;-66
2022/03/31 08:09:05;;;;;;;53.75;22.58;;;10.20;80.80;;;;;;4972545;28;20062;-65
2022/03/31 08:11:30;;;;;;;51.38;21.50;;;10.20;80.80;;;;;;4967064;28;20562;-65
2022/03/31 08:13:56;;;;;;;44.92;22.95;;;10.20;80.90;;;;;;4980798;28;20084;-65
2022/03/31 08:16:22;;;;;;;55.60;22.58;;;10.20;80.90;;;;;;4979631;28;20038;-66
2022/03/31 08:18:49;;;;;;;52.85;22.98;;;10.20;80.90;;;;;;4978295;28;20387;-65
2022/03/31 08:21:15;;;;;;;61.80;23.33;;;10.30;81.00;;;;;;4979308;28;20093;-66
2022/03/31 08:23:41;;;;;;;54.55;23.05;;;10.30;81.00;;;;;;4978599;28;20039;-66
2022/03/31 08:26:07;;;;;;;62.15;24.10;;;10.30;81.00;;;;;;4975649;28;20108;-65
2022/03/31 08:28:33;;;;;;;48.88;22.85;;;10.30;81.00;;;;;;4977011;28;20039;-65
2022/03/31 08:30:58;;;;;;;44.22;22.08;;;10.30;81.00;;;;;;4982819;28;20035;-66
2022/03/31 08:33:24;;;;;;;41.55;22.00;;;10.40;81.20;;;;;;4979620;28;20495;-66
2022/03/31 08:35:50;;;;;;;43.67;21.65;;;10.40;81.20;;;;;;4979490;28;20026;-65
2022/03/31 08:38:16;;;;;;;43.42;22.38;;;10.40;81.00;;;;;;4977216;28;20058;-66
2022/03/31 08:40:43;;;;;;;46.17;22.65;;;10.40;81.00;;;;;;4980316;28;20030;-66
2022/03/31 08:43:08;;;;;;;44.60;21.83;;;10.50;81.00;;;;;;4977379;28;20058;-65
2022/03/31 08:45:36;;;;;;;48.00;22.63;;;10.50;80.90;;;;;;4976778;28;20054;-65
2022/03/31 08:48:03;;;;;;;45.38;22.33;;;10.60;80.90;;;;;;4979544;28;20031;-65
2022/03/31 08:50:29;;;;;;;44.75;22.35;;;10.60;80.80;;;;;;4980024;28;20034;-65
2022/03/31 08:52:54;;;;;;;41.72;20.98;;;10.60;80.70;;;;;;4976492;28;20455;-66
2022/03/31 08:55:21;;;;;;;44.92;22.45;;;10.60;80.70;;;;;;4977652;28;20132;-66
2022/03/31 08:57:49;;;;;;;40.65;20.55;;;10.70;80.70;;;;;;4977826;28;20086;-66
2022/03/31 09:00:16;;;;;;;43.30;21.88;;;10.70;80.70;;;;;;4978282;28;20041;-66
2022/03/31 09:02:57;;;;;;;42.30;21.60;;;10.70;80.60;;;;;;4977614;28;20394;-66
2022/03/31 09:05:24;;;;;;;38.90;20.60;;;10.70;80.70;;;;;;4978492;28;20413;-65
2022/03/31 09:08:00;;;;;;;41.47;19.85;;;10.70;80.30;;;;;;4977091;28;20398;-65
2022/03/31 09:10:31;;;;;;;43.72;21.17;;;10.80;80.80;;;;;;4976357;28;20489;-65
2022/03/31 09:12:59;;;;;;;41.80;21.33;;;10.80;80.50;;;;;;4977601;28;20758;-66
2022/03/31 09:15:25;;;;;;;45.15;21.88;;;10.80;80.30;;;;;;4976235;28;20042;-66
2022/03/31 09:17:58;;;;;;;41.15;21.42;;;10.80;80.30;;;;;;4977714;28;20504;-66
2022/03/31 09:20:35;;;;;;;33.50;18.65;;;10.80;80.40;;;;;;4976502;28;20050;-67
2022/03/31 09:23:01;;;;;;;35.97;18.52;;;10.80;80.60;;;;;;4978312;28;20358;-66
2022/03/31 09:25:29;;;;;;;32.53;18.13;;;10.80;80.30;;;;;;4977069;28;20110;-66
2022/03/31 09:28:00;;;;;;;35.28;19.27;;;10.90;80.50;;;;;;4979259;28;20027;-66
2022/03/31 09:30:27;;;;;;;40.97;21.85;;;10.90;80.60;;;;;;4975096;28;20120;-66
2022/03/31 09:32:53;;;;;;;38.00;20.98;;;10.90;80.50;;;;;;4974452;28;20560;-66
2022/03/31 09:35:25;;;;;;;40.08;21.45;;;11.00;80.40;;;;;;4979002;28;20042;-66
2022/03/31 09:37:54;;;;;;;38.80;21.83;;;11.00;80.70;;;;;;4983000;28;20038;-66
2022/03/31 09:40:20;;;;;;;41.22;20.52;;;11.00;80.50;;;;;;4981492;28;20167;-66
2022/03/31 09:42:59;;;;;;;39.97;21.80;;;11.00;80.10;;;;;;4981065;28;20042;-66
2022/03/31 09:45:38;;;;;;;38.95;20.08;;;11.00;80.30;;;;;;4982815;28;20603;-66
2022/03/31 09:48:05;;;;;;;41.33;21.10;;;11.00;80.30;;;;;;4980991;28;20449;-65
2022/03/31 09:50:36;;;;;;;39.55;19.88;;;11.00;80.30;;;;;;4982905;28;20054;-66
2022/03/31 09:53:03;;;;;;;39.85;20.33;;;11.00;80.60;;;;;;4983957;28;20066;-66
2022/03/31 09:55:29;;;;;;;40.90;20.63;;;11.00;80.40;;;;;;4984234;28;20031;-66
2022/03/31 09:57:56;;;;;;;36.78;20.10;;;11.10;80.10;;;;;;4980394;28;20118;-66
2022/03/31 10:00:23;;;;;;;36.35;20.17;;;11.10;79.80;;;;;;4981669;28;20042;-65
2022/03/31 10:02:50;;;;;;;35.20;18.85;;;11.10;80.00;;;;;;4981474;28;20057;-65
2022/03/31 10:05:18;;;;;;;36.85;19.85;;;11.10;80.00;;;;;;4981129;28;20517;-65
2022/03/31 10:07:45;;;;;;;38.67;20.02;;;11.20;79.80;;;;;;4983445;28;20062;-65
2022/03/31 10:10:11;;;;;;;34.22;18.83;;;11.20;79.60;;;;;;4979513;28;20035;-65
2022/03/31 10:12:57;;;;;;;33.50;18.83;;;11.20;79.60;;;;;;4978802;28;20042;-67
2022/03/31 10:15:30;;;;;;;34.03;18.88;;;11.20;79.70;;;;;;4981761;28;20046;-66
2022/03/31 10:17:56;;;;;;;37.15;19.83;;;11.20;79.30;;;;;;4982636;28;20169;-65
2022/03/31 10:20:23;;;;;;;35.67;19.98;;;11.20;78.90;;;;;;4982161;28;20034;-67
2022/03/31 10:25:46;;;;;;;39.22;19.85;;;11.20;79.10;;;;;;4977644;28;20045;-66
2022/03/31 10:28:14;;;;;;;37.63;20.67;;;11.20;79.00;;;;;;4980245;28;20074;-67
2022/03/31 10:30:57;;;;;;;35.45;20.27;;;11.10;79.30;;;;;;4982426;28;20083;-66
2022/03/31 10:33:42;;;;;;;32.45;18.90;;;11.10;79.70;;;;;;4980672;28;20552;-65
2022/03/31 10:36:12;;;;;;;35.78;18.92;;;11.10;79.60;;;;;;4977975;28;20351;-65
2022/03/31 10:38:39;;;;;;;35.40;20.33;;;11.10;79.40;;;;;;4979245;28;20054;-66
2022/03/31 10:41:12;;;;;;;36.08;19.15;;;11.10;79.70;;;;;;4978067;28;20045;-66
2022/03/31 10:43:46;;;;;;;38.30;20.35;;;11.10;79.60;;;;;;4980432;28;20109;-66
2022/03/31 10:46:17;;;;;;;35.05;18.25;;;11.10;80.00;;;;;;4978068;28;20093;-65
2022/03/31 10:48:54;;;;;;;30.15;17.00;;;11.20;79.80;;;;;;4978020;28;20491;-66
2022/03/31 10:51:34;;;;;;;34.78;18.65;;;11.20;79.70;;;;;;4981783;28;20585;-66
2022/03/31 10:54:00;;;;;;;32.10;18.88;;;11.30;79.20;;;;;;4980950;28;20386;-66
2022/03/31 10:56:28;;;;;;;30.35;18.10;;;11.30;79.10;;;;;;4980292;28;20109;-66
2022/03/31 10:59:00;;;;;;;33.53;18.60;;;11.30;78.90;;;;;;4979640;28;20046;-66
2022/03/31 11:01:28;;;;;;;32.42;18.65;;;11.40;78.90;;;;;;4978679;28;20069;-66
2022/03/31 11:04:09;;;;;;;29.92;17.80;;;11.40;79.10;;;;;;4980318;28;20042;-66
2022/03/31 11:06:52;;;;;;;28.33;16.55;;;11.40;79.40;;;;;;4979227;28;20041;-66
2022/03/31 11:09:21;;;;;;;28.70;17.20;;;11.50;79.40;;;;;;4979632;28;20065;-66
2022/03/31 11:11:51;;;;;;;31.45;16.90;;;11.60;80.00;;;;;;4977920;28;20049;-66
2022/03/31 11:14:17;;;;;;;28.85;16.73;;;11.70;79.00;;;;;;4979346;28;20762;-66
2022/03/31 11:16:44;;;;;;;30.05;16.88;;;11.70;79.00;;;;;;4978258;28;20384;-66
2022/03/31 11:19:10;;;;;;;26.58;16.05;;;11.80;79.10;;;;;;4980588;28;20197;-66
2022/03/31 11:21:37;;;;;;;27.27;16.83;;;11.90;78.70;;;;;;4981073;28;20541;-66
2022/03/31 11:24:05;;;;;;;28.13;15.65;;;12.00;78.20;;;;;;4977473;28;20186;-67
2022/03/31 11:26:35;;;;;;;29.98;15.48;;;12.00;77.90;;;;;;4978135;28;20118;-66
2022/03/31 11:29:08;;;;;;;25.70;15.52;;;12.10;77.00;;;;;;4979830;28;20049;-66
2022/03/31 11:31:34;;;;;;;24.55;14.23;;;12.20;76.60;;;;;;4981837;28;20117;-66
2022/03/31 11:34:00;;;;;;;24.40;15.43;;;12.20;76.50;;;;;;4980452;28;20762;-66
2022/03/31 11:36:37;;;;;;;25.75;14.82;;;12.20;76.20;;;;;;4982323;28;20046;-67
2022/03/31 11:39:04;;;;;;;24.77;14.27;;;12.30;76.60;;;;;;4979616;28;20102;-66
2022/03/31 11:41:39;;;;;;;26.88;15.57;;;12.40;76.00;;;;;;4979508;28;20035;-66
2022/03/31 11:44:07;;;;;;;25.77;14.93;;;12.40;75.30;;;;;;4979203;28;20046;-68
2022/03/31 11:46:40;;;;;;;24.08;13.60;;;12.40;75.80;;;;;;4978545;28;20088;-66
2022/03/31 11:49:17;;;;;;;23.85;14.00;;;12.50;75.40;;;;;;4977588;28;21127;-66
2022/03/31 11:51:51;;;;;;;20.92;14.05;;;12.50;75.60;;;;;;4978556;28;20045;-66
2022/03/31 11:54:17;;;;;;;23.77;14.48;;;12.60;74.70;;;;;;4978057;28;20070;-66
2022/03/31 11:56:43;;;;;;;29.50;15.68;;;12.60;74.50;;;;;;4978870;28;20230;-66
2022/03/31 11:59:09;;;;;;;27.10;15.57;;;12.70;74.30;;;;;;4978006;28;20496;-66
2022/03/31 12:01:37;;;;;;;24.58;14.10;;;12.70;73.90;;;;;;4977328;28;20113;-66
2022/03/31 12:04:04;;;;;;;25.75;16.02;;;12.70;74.20;;;;;;4977507;28;20504;-67
2022/03/31 12:06:33;;;;;;;23.77;15.45;;;12.70;74.60;;;;;;4981621;28;20041;-66
2022/03/31 12:08:59;;;;;;;27.35;14.88;;;12.80;74.90;;;;;;4978218;28;20283;-67
2022/03/31 12:11:29;;;;;;;20.65;12.05;;;12.80;74.40;;;;;;4973117;28;20414;-66
2022/03/31 12:13:57;;;;;;;24.02;13.13;;;12.90;74.00;;;;;;4981920;28;20042;-66
2022/03/31 12:16:25;;;;;;;25.73;13.23;;;12.90;73.80;;;;;;4994038;28;20065;-67
2022/03/31 12:18:59;;;;;;;23.70;14.23;;;13.00;74.00;;;;;;4978481;28;20039;-66
2022/03/31 12:21:27;;;;;;;23.60;13.43;;;13.10;73.50;;;;;;4982775;28;20042;-66
2022/03/31 12:23:56;;;;;;;23.75;14.02;;;13.20;73.90;;;;;;4976274;28;20039;-66
2022/03/31 12:26:22;;;;;;;28.50;13.75;;;13.20;72.80;;;;;;4978885;28;20513;-67
2022/03/31 12:28:49;;;;;;;28.45;14.18;;;13.20;72.80;;;;;;4976472;28;20061;-67
2022/03/31 12:31:22;;;;;;;21.02;12.00;;;13.20;73.00;;;;;;4976169;28;20453;-67
2022/03/31 12:33:53;;;;;;;23.85;12.65;;;13.20;72.30;;;;;;4977291;28;20026;-67